createdAt,value
2023-01-18T00:00:45.656Z,98313.55
2023-01-18T00:04:21.959Z,98315.96
2023-01-18T00:07:50.241Z,98313.02
2023-01-18T00:11:20.527Z,98315.15
2023-01-18T00:14:47.984Z,98317.09
2023-01-18T00:18:18.185Z,98324.94
2023-01-18T00:21:46.300Z,98315.73
2023-01-18T00:25:17.657Z,98311.88
2023-01-18T00:28:44.811Z,98314.75
2023-01-18T00:32:16.487Z,98309.85
2023-01-18T00:35:44.571Z,98313.39
2023-01-18T00:39:13.607Z,98322.80
2023-01-18T00:43:01.171Z,98318.85
2023-01-18T00:46:35.742Z,98319.65
2023-01-18T00:50:03.247Z,98321.58
2023-01-18T00:53:31.182Z,98331.64
2023-01-18T00:56:59.153Z,98344.81
2023-01-18T01:00:27.740Z,98345.38
2023-01-18T01:04:12.904Z,98350.34
2023-01-18T01:07:43.543Z,98354.50
2023-01-18T01:11:14.900Z,98358.71
2023-01-18T01:15:05.899Z,98365.77
2023-01-18T01:18:51.281Z,98367.00
2023-01-18T01:22:36.423Z,98364.23
2023-01-18T01:26:08.307Z,98360.11
2023-01-18T01:29:39.628Z,98350.16
2023-01-18T01:33:07.702Z,98346.95
2023-01-18T01:36:35.833Z,98348.30
2023-01-18T01:40:04.256Z,98341.52
2023-01-18T01:43:47.355Z,98341.33
2023-01-18T01:47:26.748Z,98336.86
2023-01-18T01:50:54.834Z,98341.09
2023-01-18T01:54:29.553Z,98347.69
2023-01-18T01:58:00.904Z,98340.61
2023-01-18T02:01:29.630Z,98349.89
2023-01-18T02:05:00.764Z,98358.96
2023-01-18T02:08:29.995Z,98351.61
2023-01-18T02:11:58.386Z,98342.65
2023-01-18T02:15:33.112Z,98334.70
2023-01-18T02:19:11.084Z,98335.30
2023-01-18T02:23:05.435Z,98329.26
2023-01-18T02:26:47.639Z,98337.02
2023-01-18T02:30:32.285Z,98328.89
2023-01-18T02:34:07.494Z,98319.84
2023-01-18T02:37:45.770Z,98314.52
2023-01-18T02:41:21.348Z,98321.78
2023-01-18T02:45:06.864Z,98325.55
2023-01-18T02:48:37.299Z,98330.52
2023-01-18T02:52:06.817Z,98322.99
2023-01-18T02:55:46.976Z,98313.73
2023-01-18T02:59:18.006Z,98305.23
2023-01-18T03:02:47.729Z,98309.00
2023-01-18T03:06:15.357Z,98313.37
2023-01-18T03:09:46.689Z,98312.08
2023-01-18T03:13:23.665Z,98315.68
2023-01-18T03:17:00.646Z,98316.88
2023-01-18T03:20:32.700Z,98316.80
2023-01-18T03:24:01.373Z,98315.86
2023-01-18T03:27:46.177Z,98314.90
2023-01-18T03:31:35.862Z,98307.61
2023-01-18T03:35:09.165Z,98316.33
2023-01-18T03:38:36.086Z,98320.71
2023-01-18T03:42:08.100Z,98323.98
2023-01-18T03:45:38.891Z,98322.54
2023-01-18T03:49:06.237Z,98323.95
2023-01-18T03:52:42.191Z,98329.48
2023-01-18T03:56:15.512Z,98324.94
2023-01-18T03:59:43.085Z,98322.06
2023-01-18T04:03:11.122Z,98320.92
2023-01-18T04:06:39.189Z,98320.94
2023-01-18T04:10:06.585Z,98322.56
2023-01-18T04:13:33.138Z,98326.09
2023-01-18T04:17:02.243Z,98336.66
2023-01-18T04:20:29.280Z,98342.06
2023-01-18T04:23:56.255Z,98346.04
2023-01-18T04:27:24.337Z,98343.16
2023-01-18T04:30:55.088Z,98342.70
2023-01-18T04:34:25.130Z,98339.77
2023-01-18T04:37:56.111Z,98331.02
2023-01-18T04:41:33.464Z,98326.23
2023-01-18T04:45:01.520Z,98320.77
2023-01-18T04:48:28.569Z,98318.55
2023-01-18T04:51:56.086Z,98317.50
2023-01-18T04:55:23.104Z,98321.67
2023-01-18T04:58:51.280Z,98323.13
2023-01-18T05:02:20.529Z,98325.45
2023-01-18T05:05:48.342Z,98326.19
2023-01-18T05:09:16.264Z,98320.40
2023-01-18T05:12:43.166Z,98316.33
2023-01-18T05:16:14.634Z,98311.66
2023-01-18T05:19:41.800Z,98322.23
2023-01-18T05:23:11.335Z,98321.99
2023-01-18T05:26:38.736Z,98320.92
2023-01-18T05:30:06.956Z,98321.52
2023-01-18T05:33:34.128Z,98318.88
2023-01-18T05:37:01.235Z,98326.95
2023-01-18T05:40:28.249Z,98326.83
2023-01-18T05:43:54.592Z,98326.27
2023-01-18T05:47:21.175Z,98329.17
2023-01-18T05:50:49.871Z,98329.73
2023-01-18T05:54:17.231Z,98329.83
2023-01-18T05:57:44.072Z,98326.71
2023-01-18T06:01:10.775Z,98324.15
2023-01-18T06:04:38.555Z,98315.66
2023-01-18T06:08:06.879Z,98311.96
2023-01-18T06:11:34.287Z,98312.45
2023-01-18T06:15:01.086Z,98314.48
2023-01-18T06:18:30.956Z,98315.46
2023-01-18T06:21:59.298Z,98310.77
2023-01-18T06:25:27.125Z,98304.64
2023-01-18T06:28:54.148Z,98302.12
2023-01-18T06:32:23.866Z,98304.77
2023-01-18T06:35:53.595Z,98313.91
2023-01-18T06:39:20.646Z,98319.80
2023-01-18T06:42:50.967Z,98325.45
2023-01-18T06:46:19.968Z,98330.51
2023-01-18T06:49:46.924Z,98331.40
2023-01-18T06:53:14.536Z,98332.20
2023-01-18T06:56:41.571Z,98331.70
2023-01-18T07:00:10.752Z,98328.15
2023-01-18T07:03:38.934Z,98334.36
2023-01-18T07:07:06.316Z,98333.33
2023-01-18T07:10:33.065Z,98335.55
2023-01-18T07:13:59.907Z,98331.89
2023-01-18T07:17:28.279Z,98320.88
2023-01-18T07:21:01.331Z,98311.17
2023-01-18T07:24:28.036Z,98313.51
2023-01-18T07:27:56.166Z,98315.08
2023-01-18T07:31:24.114Z,98313.59
2023-01-18T07:34:51.415Z,98311.45
2023-01-18T07:38:18.863Z,98315.90
2023-01-18T07:41:45.576Z,98320.45
2023-01-18T07:45:14.253Z,98324.91
2023-01-18T07:48:41.711Z,98330.98
2023-01-18T07:52:08.853Z,98332.48
2023-01-18T07:55:39.046Z,98333.56
2023-01-18T07:59:06.168Z,98325.38
2023-01-18T08:02:33.008Z,98321.75
2023-01-18T08:06:02.000Z,98316.45
2023-01-18T08:09:28.808Z,98327.62
2023-01-18T08:12:57.217Z,98321.09
2023-01-18T08:16:24.957Z,98317.65
2023-01-18T08:19:52.114Z,98311.00
2023-01-18T08:23:20.143Z,98320.45
2023-01-18T08:26:47.479Z,98318.23
2023-01-18T08:30:17.337Z,98321.06
2023-01-18T08:33:50.874Z,98324.14
2023-01-18T08:37:17.625Z,98323.70
2023-01-18T08:40:45.308Z,98320.13
2023-01-18T08:44:13.007Z,98318.27
2023-01-18T08:47:41.429Z,98317.02
2023-01-18T08:51:08.670Z,98311.59
2023-01-18T08:54:37.120Z,98318.48
2023-01-18T08:58:04.115Z,98325.29
2023-01-18T09:01:31.737Z,98324.73
2023-01-18T09:04:59.118Z,98322.36
2023-01-18T09:08:26.852Z,98330.60
2023-01-18T09:11:58.549Z,98319.88
2023-01-18T09:15:27.305Z,98321.16
2023-01-18T09:18:55.626Z,98316.25
2023-01-18T09:22:22.468Z,98309.29
2023-01-18T09:25:50.338Z,98300.67
2023-01-18T09:29:17.105Z,98297.66
2023-01-18T09:32:43.823Z,98302.42
2023-01-18T09:36:13.375Z,98297.98
2023-01-18T09:39:51.067Z,98304.02
2023-01-18T09:43:28.693Z,98304.55
2023-01-18T09:46:59.774Z,98303.49
2023-01-18T09:50:29.273Z,98295.24
2023-01-18T09:54:08.026Z,98291.61
2023-01-18T09:57:47.263Z,98294.36
2023-01-18T10:01:17.993Z,98297.52
2023-01-18T10:04:51.292Z,98299.73
2023-01-18T10:08:24.393Z,98297.00
2023-01-18T10:11:59.912Z,98296.17
2023-01-18T10:15:32.193Z,98283.27
2023-01-18T10:19:02.961Z,98277.29
2023-01-18T10:22:34.471Z,98271.13
2023-01-18T10:26:08.180Z,98270.04
2023-01-18T10:29:49.878Z,98262.73
2023-01-18T10:33:23.308Z,98262.23
2023-01-18T10:36:54.498Z,98267.25
2023-01-18T10:40:26.856Z,98271.86
2023-01-18T10:43:56.122Z,98276.41
2023-01-18T10:47:28.859Z,98279.45
2023-01-18T10:50:57.606Z,98284.77
2023-01-18T10:54:30.554Z,98288.95
2023-01-18T10:57:58.309Z,98294.14
2023-01-18T11:01:29.278Z,98299.52
2023-01-18T11:05:03.143Z,98297.44
2023-01-18T11:08:32.086Z,98300.07
2023-01-18T11:12:37.570Z,98302.66
2023-01-18T11:16:15.807Z,98308.09
2023-01-18T11:19:42.905Z,98310.62
2023-01-18T11:23:23.589Z,98308.86
2023-01-18T11:27:10.501Z,98315.61
2023-01-18T11:30:49.386Z,98318.27
2023-01-18T11:34:28.803Z,98316.23
2023-01-18T11:38:03.057Z,98314.09
2023-01-18T11:41:29.297Z,98308.36
2023-01-18T11:45:17.358Z,98306.90
2023-01-18T11:48:51.733Z,98307.23
2023-01-18T11:52:30.982Z,98301.35
2023-01-18T11:56:07.019Z,98303.60
2023-01-18T11:59:40.317Z,98306.38
2023-01-18T12:03:38.382Z,98302.41
2023-01-18T12:07:27.500Z,98298.77
2023-01-18T12:11:08.441Z,98299.08
2023-01-18T12:14:50.569Z,98293.80
2023-01-18T12:18:33.348Z,98289.69
2023-01-18T12:22:22.635Z,98296.00
2023-01-18T12:26:12.236Z,98295.31
2023-01-18T12:30:05.374Z,98290.13
2023-01-18T12:33:44.345Z,98288.29
2023-01-18T12:37:31.685Z,98289.16
2023-01-18T12:41:42.486Z,98288.73
2023-01-18T12:45:24.622Z,98286.88
2023-01-18T12:48:58.021Z,98295.14
2023-01-18T12:52:25.848Z,98300.05
2023-01-18T12:55:55.618Z,98300.66
2023-01-18T12:59:25.725Z,98308.53
2023-01-18T13:02:59.197Z,98306.91
2023-01-18T13:06:27.201Z,98310.36
2023-01-18T13:09:55.163Z,98312.88
2023-01-18T13:13:31.776Z,98315.86
2023-01-18T13:17:09.611Z,98320.95
2023-01-18T13:20:49.044Z,98330.13
2023-01-18T13:24:28.789Z,98337.77
2023-01-18T13:28:14.424Z,98339.88
2023-01-18T13:31:41.786Z,98340.11
2023-01-18T13:35:21.291Z,98341.14
2023-01-18T13:38:55.972Z,98341.67
2023-01-18T13:42:38.393Z,98349.41
2023-01-18T13:46:20.235Z,98356.80
2023-01-18T13:49:49.914Z,98363.16
2023-01-18T13:53:49.126Z,98366.11
2023-01-18T13:57:20.171Z,98373.30
2023-01-18T14:00:51.461Z,98375.58
2023-01-18T14:04:32.287Z,98379.81
2023-01-18T14:08:02.849Z,98383.19
2023-01-18T14:11:34.622Z,98390.49
2023-01-18T14:15:02.853Z,98395.45
2023-01-18T14:18:32.467Z,98402.72
2023-01-18T14:22:25.385Z,98401.79
2023-01-18T14:26:01.689Z,98407.02
2023-01-18T14:29:40.142Z,98409.63
2023-01-18T14:33:18.144Z,98414.88
2023-01-18T14:36:46.622Z,98409.84
2023-01-18T14:40:26.834Z,98416.77
2023-01-18T14:43:58.227Z,98418.73
2023-01-18T14:47:27.033Z,98417.70
2023-01-18T14:51:07.229Z,98421.70
2023-01-18T14:54:37.554Z,98426.98
2023-01-18T14:58:14.834Z,98427.89
2023-01-18T15:01:45.050Z,98428.58
2023-01-18T15:05:17.198Z,98434.55
2023-01-18T15:08:46.826Z,98435.27
2023-01-18T15:12:23.118Z,98439.32
2023-01-18T15:16:01.103Z,98442.74
2023-01-18T15:19:39.823Z,98451.86
2023-01-18T15:23:08.564Z,98456.98
2023-01-18T15:26:54.808Z,98462.91
2023-01-18T15:30:40.467Z,98464.57
2023-01-18T15:34:19.536Z,98470.93
2023-01-18T15:37:59.563Z,98475.73
2023-01-18T15:41:36.494Z,98480.66
2023-01-18T15:45:28.436Z,98484.96
2023-01-18T15:49:03.669Z,98486.50
2023-01-18T15:52:49.805Z,98496.04
2023-01-18T15:56:38.001Z,98496.32
2023-01-18T16:00:28.108Z,98501.27
2023-01-18T16:04:08.013Z,98503.08
2023-01-18T16:07:53.117Z,98502.88
2023-01-18T16:11:46.483Z,98507.14
2023-01-18T16:15:34.596Z,98510.77
2023-01-18T16:19:18.943Z,98518.79
2023-01-18T16:23:04.944Z,98523.61
2023-01-18T16:26:38.555Z,98527.67
2023-01-18T16:30:45.607Z,98529.98
2023-01-18T16:34:28.270Z,98534.48
2023-01-18T16:37:58.215Z,98527.33
2023-01-18T16:41:25.851Z,98532.73
2023-01-18T16:44:54.546Z,98535.23
2023-01-18T16:48:33.803Z,98536.08
2023-01-18T16:52:00.904Z,98536.98
2023-01-18T16:55:29.481Z,98537.21
2023-01-18T16:58:56.437Z,98538.52
2023-01-18T17:02:24.951Z,98537.61
2023-01-18T17:05:53.660Z,98542.50
2023-01-18T17:09:26.473Z,98545.48
2023-01-18T17:12:55.666Z,98546.98
2023-01-18T17:16:22.946Z,98552.41
2023-01-18T17:19:51.810Z,98553.45
2023-01-18T17:23:19.474Z,98552.80
2023-01-18T17:26:46.867Z,98553.73
2023-01-18T17:30:19.336Z,98563.61
2023-01-18T17:33:49.258Z,98572.05
2023-01-18T17:37:17.351Z,98577.50
2023-01-18T17:40:46.563Z,98586.89
2023-01-18T17:44:24.111Z,98596.30
2023-01-18T17:47:55.228Z,98607.46
2023-01-18T17:51:25.566Z,98608.45
2023-01-18T17:54:52.731Z,98615.06
2023-01-18T17:58:25.972Z,98616.78
2023-01-18T18:01:55.194Z,98626.25
2023-01-18T18:05:24.646Z,98634.31
2023-01-18T18:08:53.863Z,98645.90
2023-01-18T18:12:25.079Z,98648.02
2023-01-18T18:15:58.684Z,98657.13
2023-01-18T18:19:29.505Z,98658.63
2023-01-18T18:23:02.617Z,98668.75
2023-01-18T18:26:32.956Z,98672.84
2023-01-18T18:30:04.026Z,98681.51
2023-01-18T18:33:36.807Z,98690.33
2023-01-18T18:37:06.034Z,98693.39
2023-01-18T18:40:36.996Z,98703.07
2023-01-18T18:44:04.693Z,98706.92
2023-01-18T18:47:33.800Z,98711.58
2023-01-18T18:51:02.182Z,98711.69
2023-01-18T18:54:29.539Z,98710.61
2023-01-18T18:57:57.990Z,98716.73
2023-01-18T19:01:29.744Z,98722.41
2023-01-18T19:05:01.796Z,98719.55
2023-01-18T19:08:34.089Z,98726.01
2023-01-18T19:12:06.908Z,98749.25
2023-01-18T19:15:36.744Z,98757.62
2023-01-18T19:19:07.841Z,98767.57
2023-01-18T19:22:43.007Z,98779.02
2023-01-18T19:26:10.661Z,98791.06
2023-01-18T19:29:39.641Z,98796.95
2023-01-18T19:33:15.695Z,98806.04
2023-01-18T19:36:42.647Z,98818.92
2023-01-18T19:40:14.481Z,98824.14
2023-01-18T19:43:43.018Z,98829.95
2023-01-18T19:47:10.600Z,98831.77
2023-01-18T19:50:40.297Z,98839.40
2023-01-18T19:54:28.568Z,98844.36
2023-01-18T19:58:01.566Z,98851.20
2023-01-18T20:01:36.836Z,98856.64
2023-01-18T20:05:04.672Z,98866.34
2023-01-18T20:08:34.502Z,98875.67
2023-01-18T20:12:03.447Z,98889.35
2023-01-18T20:15:31.683Z,98898.27
2023-01-18T20:18:59.115Z,98900.27
2023-01-18T20:22:26.360Z,98903.11
2023-01-18T20:25:55.923Z,98903.19
2023-01-18T20:29:22.924Z,98904.50
2023-01-18T20:32:50.717Z,98907.36
2023-01-18T20:36:18.501Z,98909.93
2023-01-18T20:39:56.619Z,98914.99
2023-01-18T20:43:23.663Z,98921.05
2023-01-18T20:46:55.359Z,98922.68
2023-01-18T20:50:24.603Z,98925.48
2023-01-18T20:53:52.003Z,98927.81
2023-01-18T20:57:19.198Z,98927.41
2023-01-18T21:00:46.738Z,98924.62
2023-01-18T21:04:14.120Z,98924.11
2023-01-18T21:07:42.495Z,98919.41
2023-01-18T21:11:17.514Z,98922.40
2023-01-18T21:14:45.397Z,98928.15
2023-01-18T21:18:17.182Z,98929.36
2023-01-18T21:21:50.227Z,98937.10
2023-01-18T21:25:21.832Z,98941.75
2023-01-18T21:28:49.868Z,98956.25
2023-01-18T21:32:23.219Z,98968.06
2023-01-18T21:35:53.205Z,98981.29
2023-01-18T21:39:25.654Z,98994.65
2023-01-18T21:43:13.931Z,99013.44
2023-01-18T21:46:48.309Z,99027.09
2023-01-18T21:50:42.797Z,99030.05
2023-01-18T21:54:23.709Z,99032.64
2023-01-18T21:58:09.066Z,99039.00
2023-01-18T22:01:43.281Z,99046.77
2023-01-18T22:05:13.146Z,99055.53
2023-01-18T22:08:41.701Z,99063.55
2023-01-18T22:12:14.496Z,99062.66
2023-01-18T22:15:43.706Z,99068.05
2023-01-18T22:19:13.625Z,99070.75
2023-01-18T22:22:41.424Z,99075.10
2023-01-18T22:26:08.583Z,99073.34
2023-01-18T22:29:39.864Z,99079.98
2023-01-18T22:33:11.460Z,99084.04
2023-01-18T22:36:40.670Z,99083.38
2023-01-18T22:40:11.282Z,99087.45
2023-01-18T22:43:42.582Z,99093.45
2023-01-18T22:47:09.471Z,99097.16
2023-01-18T22:50:36.904Z,99095.94
2023-01-18T22:54:04.449Z,99089.05
2023-01-18T22:57:35.520Z,99085.81
2023-01-18T23:01:05.566Z,99084.73
2023-01-18T23:04:34.593Z,99085.36
2023-01-18T23:08:06.044Z,99094.57
2023-01-18T23:11:34.767Z,99101.11
2023-01-18T23:15:19.226Z,99104.44
2023-01-18T23:18:48.941Z,99114.59
2023-01-18T23:22:16.007Z,99122.12
2023-01-18T23:25:47.306Z,99131.99
2023-01-18T23:29:22.476Z,99137.51
2023-01-18T23:32:53.054Z,99136.59
2023-01-18T23:36:20.531Z,99137.83
2023-01-18T23:40:06.356Z,99148.39
2023-01-18T23:43:51.231Z,99150.88
2023-01-18T23:47:36.210Z,99155.44
2023-01-18T23:51:21.603Z,99153.48
2023-01-18T23:54:48.949Z,99155.55
2023-01-18T23:58:16.229Z,99168.95
